Time;durP1;ratioP1;P1;durP2;ratioP2;P2;SDS_P1;SDS_P2;PMS_P1;PMS_P2;Temp;Humidity;BMP_temperature;BMP_pressure;BME280_temperature;BME280_humidity;BME280_pressure;Samples;Min_cycle;Max_cycle;Signal;HPM_P1;HPM_P2
2021/05/12 00:00:25;;;;;;;7.82;1.90;;;;;;;15.80;68.23;99708.69;5062612;28;20498;-68
2021/05/12 00:02:52;;;;;;;12.40;2.90;;;;;;;15.70;68.56;99712.03;5062035;28;20134;-68
2021/05/12 00:05:21;;;;;;;11.45;2.20;;;;;;;15.75;69.25;99708.22;5057138;28;20127;-69
2021/05/12 00:07:49;;;;;;;7.93;3.13;;;;;;;15.82;69.04;99712.00;5061636;28;20040;-69
2021/05/12 00:10:17;;;;;;;4.57;1.92;;;;;;;15.84;69.18;99712.75;5060965;28;20033;-69
2021/05/12 00:12:44;;;;;;;3.75;1.27;;;;;;;15.87;67.25;99701.97;5059200;28;20072;-69
2021/05/12 00:15:14;;;;;;;4.18;2.03;;;;;;;15.90;65.99;99702.56;5058707;28;20082;-69
2021/05/12 00:17:44;;;;;;;5.72;1.20;;;;;;;16.03;65.57;99707.66;5063639;28;20115;-69
2021/05/12 00:20:13;;;;;;;2.20;1.08;;;;;;;16.12;64.57;99704.28;5059768;28;20037;-69
2021/05/12 00:25:11;;;;;;;3.33;1.13;;;;;;;15.97;63.89;99693.22;5061088;28;20079;-68
2021/05/12 00:27:38;;;;;;;5.32;1.30;;;;;;;15.96;64.39;99698.59;5064325;28;20086;-68
2021/05/12 00:30:08;;;;;;;5.78;1.30;;;;;;;15.89;64.71;99685.13;5046077;28;20037;-69
2021/05/12 00:32:35;;;;;;;3.22;1.45;;;;;;;15.98;62.71;99696.72;5059037;28;20076;-67
2021/05/12 00:35:02;;;;;;;2.88;1.63;;;;;;;15.89;63.23;99698.28;5063047;28;20072;-68
2021/05/12 00:37:29;;;;;;;3.17;1.42;;;;;;;15.87;63.29;99691.47;5061594;28;20491;-68
2021/05/12 00:39:56;;;;;;;4.07;1.55;;;;;;;15.75;64.54;99693.28;5064114;28;20060;-69
2021/05/12 00:42:28;;;;;;;1.85;1.52;;;;;;;15.70;65.76;99700.69;5063979;28;20075;-68
2021/05/12 00:44:55;;;;;;;9.98;2.58;;;;;;;15.66;66.46;99689.63;5057656;28;20060;-68
2021/05/12 00:47:26;;;;;;;8.07;1.63;;;;;;;15.77;66.27;99691.38;5062627;28;20043;-68
2021/05/12 00:49:54;;;;;;;7.88;2.13;;;;;;;15.74;66.35;99690.78;5058620;28;20033;-69
2021/05/12 00:52:22;;;;;;;3.00;1.92;;;;;;;15.68;66.82;99690.31;5059254;28;20037;-68
2021/05/12 00:54:50;;;;;;;19.73;2.88;;;;;;;15.50;67.87;99689.13;5064000;28;20561;-68
2021/05/12 00:57:16;;;;;;;6.32;2.20;;;;;;;15.45;67.90;99678.16;5063854;28;20444;-68
2021/05/12 00:59:45;;;;;;;3.88;1.92;;;;;;;15.49;67.79;99679.56;5058911;28;20061;-68
2021/05/12 01:02:13;;;;;;;1.40;1.30;;;;;;;15.47;67.97;99684.13;5059934;28;20110;-68
2021/05/12 01:04:40;;;;;;;3.97;2.17;;;;;;;15.37;68.31;99667.41;5064481;28;20506;-68
2021/05/12 01:07:07;;;;;;;4.03;1.95;;;;;;;15.34;68.54;99670.28;5064480;28;20383;-69
2021/05/12 01:09:34;;;;;;;6.93;1.83;;;;;;;15.25;68.84;99673.63;5064933;28;20083;-67
2021/05/12 01:12:01;;;;;;;6.03;1.55;;;;;;;15.28;69.05;99674.22;5061952;28;20080;-68
2021/05/12 01:14:29;;;;;;;5.93;1.95;;;;;;;15.37;68.55;99675.28;5064537;28;20546;-68
2021/05/12 01:16:56;;;;;;;3.10;1.70;;;;;;;15.45;67.88;99672.91;5066348;28;20156;-68
2021/05/12 01:19:24;;;;;;;4.25;1.65;;;;;;;15.45;67.46;99672.91;5061387;28;20587;-68
2021/05/12 01:21:51;;;;;;;2.10;1.33;;;;;;;15.52;67.07;99660.94;5065469;28;20127;-68
2021/05/12 01:24:18;;;;;;;2.72;1.73;;;;;;;15.53;66.98;99661.78;5063303;28;20167;-67
2021/05/12 01:26:45;;;;;;;2.95;1.45;;;;;;;15.38;66.98;99656.78;5063523;28;20414;-64
2021/05/12 01:29:13;;;;;;;4.28;1.63;;;;;;;15.15;69.49;99657.78;5059516;28;20036;-67
2021/05/12 01:31:43;;;;;;;2.95;2.15;;;;;;;15.07;68.67;99655.72;5064545;28;20079;-67
2021/05/12 01:34:17;;;;;;;6.95;2.20;;;;;;;15.15;68.75;99652.50;5066416;28;20479;-68
2021/05/12 01:36:45;;;;;;;6.57;1.90;;;;;;;15.09;69.15;99653.84;5060800;28;20048;-67
2021/05/12 01:39:13;;;;;;;5.82;3.00;;;;;;;15.23;68.29;99646.66;5066505;28;20040;-68
2021/05/12 01:41:41;;;;;;;4.13;2.85;;;;;;;15.25;68.52;99644.75;5065919;28;20106;-67
2021/05/12 01:44:12;;;;;;;6.32;2.92;;;;;;;15.29;68.32;99651.44;5063808;28;20044;-67
2021/05/12 01:46:43;;;;;;;6.10;2.97;;;;;;;15.29;68.40;99643.56;5064698;28;20487;-67
2021/05/12 01:49:12;;;;;;;5.00;3.75;;;;;;;15.09;69.89;99638.09;5066761;28;20036;-68
2021/05/12 01:51:39;;;;;;;6.13;4.97;;;;;;;15.07;70.10;99636.50;5062090;28;20036;-68
2021/05/12 01:54:08;;;;;;;6.72;4.95;;;;;;;15.01;70.24;99639.63;5064923;28;20120;-68
2021/05/12 01:56:37;;;;;;;14.02;5.95;;;;;;;14.85;70.91;99635.56;5067003;28;20032;-67
2021/05/12 01:59:05;;;;;;;6.55;5.95;;;;;;;14.97;70.55;99636.44;5061042;28;20441;-68
2021/05/12 02:01:33;;;;;;;7.18;5.10;;;;;;;14.85;71.02;99634.72;5061832;28;20061;-68
2021/05/12 02:04:03;;;;;;;18.00;6.80;;;;;;;14.92;71.44;99642.03;5064181;28;20064;-68
2021/05/12 02:06:31;;;;;;;7.72;6.50;;;;;;;14.86;71.44;99642.50;5064620;28;20086;-69
2021/05/12 02:09:05;;;;;;;8.13;6.32;;;;;;;14.77;71.94;99645.00;5064305;28;20047;-68
2021/05/12 02:11:32;;;;;;;11.73;7.28;;;;;;;14.84;71.89;99638.31;5064462;28;21748;-68
2021/05/12 02:14:03;;;;;;;15.20;7.90;;;;;;;14.80;71.89;99635.06;5067401;28;20053;-68
2021/05/12 02:16:30;;;;;;;10.18;5.90;;;;;;;14.82;72.34;99634.97;5065161;28;20106;-68
2021/05/12 02:18:57;;;;;;;17.08;8.32;;;;;;;14.71;72.20;99630.56;5061628;28;20037;-68
2021/05/12 02:21:24;;;;;;;14.95;9.80;;;;;;;14.80;72.52;99629.00;5060107;28;20086;-67
2021/05/12 02:23:51;;;;;;;10.23;9.20;;;;;;;14.77;72.68;99629.25;5062896;28;20482;-68
2021/05/12 02:26:18;;;;;;;13.88;8.30;;;;;;;14.58;73.17;99628.03;5062835;28;20053;-67
2021/05/12 02:28:45;;;;;;;9.55;8.48;;;;;;;14.57;73.41;99615.88;5063869;28;20124;-68
2021/05/12 02:31:11;;;;;;;12.38;9.80;;;;;;;14.73;72.58;99619.94;5065448;28;20443;-68
2021/05/12 02:33:38;;;;;;;10.00;9.02;;;;;;;14.72;73.15;99626.16;5061159;28;20048;-69
2021/05/12 02:36:05;;;;;;;10.57;9.48;;;;;;;14.67;73.28;99616.84;5063571;28;20550;-68
2021/05/12 02:38:32;;;;;;;10.30;9.27;;;;;;;14.58;73.42;99614.06;5068044;28;20051;-68
2021/05/12 02:40:59;;;;;;;12.25;10.95;;;;;;;14.50;73.64;99612.06;5059370;28;20115;-68
2021/05/12 02:43:26;;;;;;;15.43;10.00;;;;;;;14.58;73.91;99609.66;5064338;28;20410;-68
2021/05/12 02:45:53;;;;;;;15.38;10.18;;;;;;;14.52;74.54;99612.75;5045273;28;20036;-69
2021/05/12 02:48:20;;;;;;;11.32;9.20;;;;;;;14.40;74.17;99614.50;5063458;28;20075;-69
2021/05/12 02:50:47;;;;;;;9.75;8.25;;;;;;;14.57;73.70;99618.50;5067542;28;20048;-69
2021/05/12 02:53:14;;;;;;;10.10;8.80;;;;;;;14.52;74.00;99615.38;5061814;28;20124;-68
2021/05/12 02:55:41;;;;;;;9.30;8.40;;;;;;;14.61;73.64;99612.06;5064448;28;20106;-68
2021/05/12 02:58:08;;;;;;;9.73;8.65;;;;;;;14.55;74.02;99612.53;5063990;28;20033;-67
2021/05/12 03:00:37;;;;;;;10.63;9.27;;;;;;;14.54;73.47;99610.00;5065495;28;20127;-68
2021/05/12 03:03:05;;;;;;;11.05;9.45;;;;;;;14.52;73.59;99611.94;5064662;28;20032;-68
2021/05/12 03:05:32;;;;;;;11.93;10.73;;;;;;;14.47;74.19;99616.66;5061677;28;20495;-67
2021/05/12 03:08:00;;;;;;;10.75;9.63;;;;;;;14.55;73.62;99617.78;5063374;28;20040;-67
2021/05/12 03:10:31;;;;;;;13.88;12.25;;;;;;;14.72;72.88;99616.50;5060272;28;20107;-67
2021/05/12 03:12:58;;;;;;;16.02;11.45;;;;;;;14.68;73.22;99615.03;5062486;28;20087;-67
2021/05/12 03:15:27;;;;;;;14.63;13.10;;;;;;;14.63;73.29;99614.56;5062868;28;20037;-68
2021/05/12 03:17:57;;;;;;;17.95;12.82;;;;;;;14.55;73.55;99607.28;5059942;28;20032;-67
2021/05/12 03:20:26;;;;;;;15.20;13.65;;;;;;;14.62;72.97;99608.47;5060146;28;20560;-67
2021/05/12 03:22:54;;;;;;;13.98;12.57;;;;;;;14.60;72.63;99604.31;5062268;28;20068;-67
2021/05/12 03:25:22;;;;;;;16.85;13.95;;;;;;;14.48;73.47;99616.56;5062175;28;20384;-67
2021/05/12 03:27:50;;;;;;;15.05;11.88;;;;;;;14.35;74.01;99618.44;5060022;28;20032;-67
2021/05/12 03:30:20;;;;;;;16.02;13.27;;;;;;;14.42;73.94;99619.63;5058862;28;20082;-67
2021/05/12 03:32:48;;;;;;;12.85;11.60;;;;;;;14.28;74.48;99631.16;5061598;28;20041;-67
2021/05/12 03:35:15;;;;;;;13.98;12.57;;;;;;;14.25;74.47;99631.38;5059965;28;20441;-67
2021/05/12 03:37:42;;;;;;;14.48;12.75;;;;;;;14.33;74.29;99639.53;5064987;28;20036;-68
2021/05/12 03:40:10;;;;;;;24.33;12.90;;;;;;;14.30;74.53;99641.53;5059346;28;20150;-67
2021/05/12 03:42:37;;;;;;;14.30;12.80;;;;;;;14.31;74.46;99637.94;5062372;28;20040;-68
2021/05/12 03:45:05;;;;;;;14.52;13.02;;;;;;;14.21;75.00;99635.19;5059874;28;20090;-68
2021/05/12 03:47:33;;;;;;;14.63;12.68;;;;;;;14.31;74.52;99630.09;5062290;28;20041;-68
2021/05/12 03:50:01;;;;;;;14.82;13.32;;;;;;;14.25;74.43;99634.00;5060819;28;20150;-68
2021/05/12 03:52:28;;;;;;;18.58;13.80;;;;;;;14.48;73.41;99631.47;5061899;28;20087;-68
2021/05/12 03:54:55;;;;;;;15.00;12.85;;;;;;;14.22;74.19;99644.75;5044051;28;20086;-67
2021/05/12 03:57:22;;;;;;;15.38;13.65;;;;;;;14.35;73.87;99644.66;5059573;28;20032;-67
2021/05/12 03:59:49;;;;;;;14.48;12.88;;;;;;;14.27;73.98;99644.38;5059547;28;20048;-68
2021/05/12 04:02:16;;;;;;;17.10;12.45;;;;;;;14.26;73.86;99650.56;5029155;28;20127;-67
2021/05/12 04:04:43;;;;;;;16.08;13.32;;;;;;;14.13;74.55;99648.88;5061216;28;20036;-68
2021/05/12 04:07:09;;;;;;;19.08;14.48;;;;;;;14.07;74.19;99654.56;5061088;28;20041;-68
2021/05/12 04:09:36;;;;;;;15.93;13.65;;;;;;;14.11;74.64;99653.41;5061585;28;20115;-68
2021/05/12 04:12:04;;;;;;;14.38;12.25;;;;;;;14.11;74.39;99650.78;5068596;28;20097;-68
2021/05/12 04:14:31;;;;;;;15.38;11.95;;;;;;;14.17;73.71;99659.97;5068543;28;20045;-68
2021/05/12 04:16:58;;;;;;;15.00;13.50;;;;;;;14.12;73.86;99655.06;5072266;28;20086;-68
2021/05/12 04:19:25;;;;;;;18.85;11.82;;;;;;;14.18;74.30;99655.56;5072147;28;20481;-68
2021/05/12 04:21:52;;;;;;;13.23;11.60;;;;;;;14.33;73.34;99667.53;5072222;28;20072;-68
2021/05/12 04:24:19;;;;;;;12.70;11.40;;;;;;;14.31;73.33;99667.63;5071886;28;20071;-70
2021/05/12 04:26:45;;;;;;;12.38;11.07;;;;;;;14.37;73.59;99674.19;5072541;28;20087;-67
2021/05/12 04:29:13;;;;;;;13.13;10.50;;;;;;;14.30;73.71;99673.00;5072054;28;20056;-68
2021/05/12 04:31:40;;;;;;;14.38;10.27;;;;;;;14.32;73.55;99673.69;5072090;28;20068;-67
2021/05/12 04:34:07;;;;;;;12.43;10.00;;;;;;;14.35;73.02;99676.94;5072539;28;20102;-67
2021/05/12 04:36:34;;;;;;;14.27;10.77;;;;;;;14.31;73.44;99683.34;5072305;28;20116;-67
2021/05/12 04:39:03;;;;;;;14.60;10.50;;;;;;;14.41;72.10;99686.13;5076304;28;20132;-68
2021/05/12 04:41:30;;;;;;;13.18;9.88;;;;;;;14.37;72.35;99687.31;5075980;28;20064;-68
2021/05/12 04:43:57;;;;;;;12.30;9.82;;;;;;;14.50;71.99;99689.91;5073023;28;20051;-72
2021/05/12 04:46:25;;;;;;;15.90;9.18;;;;;;;14.56;71.38;99687.63;5075449;28;20086;-71
2021/05/12 04:48:53;;;;;;;10.85;9.55;;;;;;;14.71;71.16;99700.56;5075955;28;20410;-72
2021/05/12 04:51:21;;;;;;;12.70;10.10;;;;;;;14.76;70.39;99703.69;5070653;28;20151;-71
2021/05/12 04:53:49;;;;;;;10.65;9.55;;;;;;;14.96;69.73;99708.22;5055258;28;20072;-69
2021/05/12 04:56:16;;;;;;;11.43;9.57;;;;;;;14.97;69.71;99707.28;5075745;28;20041;-71
2021/05/12 04:58:43;;;;;;;19.70;10.43;;;;;;;14.99;69.50;99704.53;5075086;28;20040;-72
2021/05/12 05:01:10;;;;;;;13.52;8.40;;;;;;;15.01;69.63;99706.06;5075638;28;20525;-75
2021/05/12 05:03:41;;;;;;;12.70;8.48;;;;;;;15.12;69.02;99706.06;5075017;28;20044;-76
2021/05/12 05:06:10;;;;;;;11.68;8.35;;;;;;;15.05;69.19;99704.06;5075090;28;20048;-75
2021/05/12 05:08:37;;;;;;;10.13;7.40;;;;;;;15.04;69.25;99708.47;5075370;28;20036;-75
2021/05/12 05:11:05;;;;;;;10.02;7.93;;;;;;;15.00;70.14;99696.53;5075225;28;20044;-70
2021/05/12 05:13:33;;;;;;;9.48;8.27;;;;;;;15.09;69.84;99701.09;5074106;28;20040;-69
2021/05/12 05:16:00;;;;;;;9.40;8.50;;;;;;;15.06;70.32;99700.47;5075449;28;20522;-70
2021/05/12 05:18:28;;;;;;;10.65;9.55;;;;;;;15.06;70.58;99695.22;5075242;28;20037;-70
2021/05/12 05:20:55;;;;;;;11.13;8.70;;;;;;;15.33;71.28;99697.50;5074837;28;20647;-70
2021/05/12 05:23:23;;;;;;;9.05;8.13;;;;;;;15.39;70.71;99702.25;5074478;28;20044;-68
2021/05/12 05:25:51;;;;;;;13.70;9.85;;;;;;;15.45;70.85;99707.06;5074943;28;20384;-71
2021/05/12 05:28:18;;;;;;;10.98;9.98;;;;;;;15.43;71.20;99706.31;5056671;28;20128;-69
2021/05/12 05:30:45;;;;;;;11.65;8.43;;;;;;;15.43;71.39;99709.78;5064976;28;20470;-71
2021/05/12 05:33:30;;;;;;;17.85;9.65;;;;;;;15.43;71.41;99711.56;5060555;28;20578;-72
2021/05/12 05:36:15;;;;;;;12.25;9.30;;;;;;;15.51;71.08;99709.19;5064670;28;20056;-73
2021/05/12 05:39:01;;;;;;;10.50;8.85;;;;;;;15.95;70.87;99723.22;5074069;28;20058;-73
2021/05/12 05:41:47;;;;;;;10.23;8.02;;;;;;;16.65;68.83;99716.59;5075375;28;20094;-69
2021/05/12 05:44:33;;;;;;;8.70;6.75;;;;;;;17.35;66.69;99717.72;5074460;28;20125;-69
2021/05/12 05:47:19;;;;;;;6.40;5.78;;;;;;;17.99;63.83;99714.72;5064599;28;20099;-70
2021/05/12 05:50:06;;;;;;;5.63;4.20;;;;;;;18.27;61.37;99719.19;5058845;28;20056;-71
2021/05/12 05:52:55;;;;;;;3.60;2.95;;;;;;;18.73;59.64;99712.38;5070057;28;20422;-70
2021/05/12 05:55:41;;;;;;;3.33;2.97;;;;;;;19.21;57.36;99714.03;5061083;28;20047;-70
2021/05/12 05:58:40;;;;;;;8.23;2.72;;;;;;;19.88;55.64;99704.97;5015313;28;20080;-72
2021/05/12 06:01:25;;;;;;;2.85;2.03;;;;;;;20.42;53.16;99704.97;5059116;28;20513;-70
2021/05/12 06:03:52;;;;;;;2.95;2.17;;;;;;;20.74;52.00;99707.06;5059166;28;20048;-71
2021/05/12 06:06:38;;;;;;;4.07;2.05;;;;;;;21.16;50.85;99698.38;5064716;28;20088;-73
2021/05/12 06:09:24;;;;;;;2.97;1.58;;;;;;;21.19;49.67;99708.66;5066312;28;20097;-74
2021/05/12 06:12:09;;;;;;;3.22;1.10;;;;;;;21.16;49.58;99698.38;5060266;28;20047;-75
2021/05/12 06:14:55;;;;;;;1.67;1.15;;;;;;;21.74;47.65;99704.78;5060889;28;20044;-73
2021/05/12 06:18:01;;;;;;;1.92;1.58;;;;;;;22.42;47.04;99705.38;5017686;28;20482;-73
2021/05/12 06:20:47;;;;;;;2.15;1.50;;;;;;;22.51;45.20;99700.09;5060153;28;20067;-71
2021/05/12 06:23:33;;;;;;;3.50;1.80;;;;;;;23.20;44.87;99698.66;5044446;28;20059;-74
2021/05/12 06:26:20;;;;;;;3.38;1.60;;;;;;;22.36;44.96;99700.75;5061626;28;20149;-73
2021/05/12 06:29:05;;;;;;;2.67;2.05;;;;;;;21.69;47.10;99697.31;5058083;28;20147;-73
2021/05/12 06:31:51;;;;;;;3.58;2.20;;;;;;;21.36;48.00;99702.50;5059692;28;20044;-74
2021/05/12 06:34:37;;;;;;;1.77;1.42;;;;;;;20.82;48.97;99698.34;5058360;28;20400;-74
2021/05/12 06:37:25;;;;;;;3.75;1.58;;;;;;;20.71;49.08;99701.25;5062439;28;20055;-76
2021/05/12 06:40:16;;;;;;;1.98;1.80;;;;;;;20.53;50.27;99704.75;5059109;28;20044;-75
2021/05/12 06:42:43;;;;;;;6.10;1.45;;;;;;;20.47;49.59;99704.56;5054246;28;20048;-76
2021/05/12 06:45:14;;;;;;;1.50;1.40;;;;;;;20.66;49.77;99693.75;5063066;28;20090;-73
2021/05/12 06:47:42;;;;;;;0.95;0.90;;;;;;;21.07;48.33;99692.19;5061016;28;20124;-72
2021/05/12 06:50:09;;;;;;;1.25;0.90;;;;;;;20.89;48.71;99700.22;5068815;28;20049;-76
2021/05/12 06:52:36;;;;;;;1.23;1.13;;;;;;;20.58;49.26;99701.66;5060724;28;20105;-77
2021/05/12 06:55:04;;;;;;;1.90;1.30;;;;;;;20.39;48.88;99700.81;5062154;28;20044;-72
2021/05/12 06:57:31;;;;;;;3.05;1.20;;;;;;;20.40;48.67;99688.44;5063739;28;20566;-71
2021/05/12 06:59:58;;;;;;;3.63;1.50;;;;;;;20.52;48.67;99691.69;5059795;28;20045;-70
2021/05/12 07:02:42;;;;;;;4.40;1.40;;;;;;;20.30;48.50;99700.91;5061495;28;20430;-70
2021/05/12 07:05:14;;;;;;;2.60;0.98;;;;;;;20.33;48.60;99693.47;5063235;28;20041;-73
2021/05/12 07:07:42;;;;;;;4.00;0.98;;;;;;;20.55;48.19;99696.66;5059521;28;20419;-74
2021/05/12 07:10:10;;;;;;;1.50;1.10;;;;;;;20.55;48.36;99686.06;5059778;28;20032;-74
2021/05/12 07:12:37;;;;;;;1.63;1.10;;;;;;;20.26;49.23;99695.09;5065280;28;20410;-72
2021/05/12 07:15:06;;;;;;;2.53;0.80;;;;;;;20.38;49.10;99685.91;5058324;28;20394;-71
2021/05/12 07:17:34;;;;;;;1.05;0.70;;;;;;;20.41;48.50;99680.31;5058186;28;20127;-73
2021/05/12 07:20:03;;;;;;;3.50;1.00;;;;;;;20.34;49.16;99684.53;5058668;28;20075;-72
2021/05/12 07:22:30;;;;;;;5.70;1.20;;;;;;;20.32;48.69;99680.41;5059555;28;20036;-69
2021/05/12 07:24:57;;;;;;;1.67;0.90;;;;;;;20.36;48.52;99685.25;5063268;28;20048;-69
2021/05/12 07:27:24;;;;;;;6.28;0.90;;;;;;;20.37;48.40;99691.38;5057452;28;20056;-68
2021/05/12 07:29:51;;;;;;;1.70;0.88;;;;;;;20.35;49.01;99696.81;5058245;28;20445;-70
2021/05/12 07:32:19;;;;;;;3.78;0.90;;;;;;;20.27;49.23;99691.44;5057888;28;20501;-68
2021/05/12 07:34:50;;;;;;;2.05;0.90;;;;;;;20.32;50.13;99705.06;5055213;28;20099;-71
2021/05/12 07:37:18;;;;;;;4.50;0.93;;;;;;;20.33;50.39;99705.88;5059528;28;20068;-71
2021/05/12 07:39:45;;;;;;;0.77;0.77;;;;;;;20.31;50.92;99695.47;5058256;28;20041;-70
2021/05/12 07:42:14;;;;;;;2.92;1.27;;;;;;;20.23;50.10;99699.84;5057399;28;20127;-69
2021/05/12 07:44:42;;;;;;;2.15;1.10;;;;;;;20.21;50.44;99696.53;5054556;28;20044;-67
2021/05/12 07:47:09;;;;;;;1.98;1.10;;;;;;;19.96;49.22;99700.75;5054407;28;20662;-78
2021/05/12 07:49:40;;;;;;;2.65;0.65;;;;;;;19.91;49.52;99703.00;5057687;28;20037;-77
2021/05/12 07:52:14;;;;;;;1.40;1.00;;;;;;;20.02;49.66;99700.13;5053722;28;20041;-79
2021/05/12 07:54:42;;;;;;;;;;;;;;;19.99;50.21;99705.75;5058991;28;20088;-78
2021/05/12 07:57:09;;;;;;;1.52;1.13;;;;;;;19.76;50.52;99700.88;5057213;28;20011;-79
2021/05/12 07:59:37;;;;;;;2.33;1.42;;;;;;;19.75;48.97;99699.19;5058644;28;20068;-91
2021/05/12 08:02:04;;;;;;;0.60;0.60;;;;;;;19.87;48.49;99698.03;5061095;28;20045;-88
2021/05/12 08:04:35;;;;;;;2.15;0.90;;;;;;;20.02;48.88;99690.38;5056298;28;20499;-87
2021/05/12 08:07:03;;;;;;;3.25;1.05;;;;;;;20.13;49.24;99695.47;5054563;28;20044;-80
2021/05/12 08:09:31;;;;;;;2.13;1.02;;;;;;;20.08;48.99;99696.88;5042186;28;20047;-79
2021/05/12 08:11:57;;;;;;;4.53;0.75;;;;;;;20.17;48.63;99703.91;5058188;28;20095;-77
2021/05/12 08:14:24;;;;;;;2.78;1.02;;;;;;;20.12;48.79;99691.13;5055635;28;20051;-80
2021/05/12 08:16:52;;;;;;;2.55;0.80;;;;;;;20.19;47.74;99699.31;5055032;28;20215;-77
2021/05/12 08:19:20;;;;;;;0.82;0.75;;;;;;;20.38;47.76;99701.78;5038967;28;20045;-80
2021/05/12 08:21:50;;;;;;;3.92;1.08;;;;;;;20.53;47.40;99703.94;5056993;28;20044;-73
2021/05/12 08:24:17;;;;;;;2.83;0.70;;;;;;;20.63;46.08;99702.03;5052822;28;20045;-77
2021/05/12 08:26:45;;;;;;;1.27;1.17;;;;;;;20.67;46.19;99696.28;5060508;28;20467;-77
2021/05/12 08:29:14;;;;;;;1.35;0.80;;;;;;;20.78;46.08;99697.00;5058445;28;20068;-76
2021/05/12 08:31:44;;;;;;;1.73;0.80;;;;;;;21.01;46.20;99687.53;5060161;28;20135;-78
2021/05/12 08:34:11;;;;;;;3.20;0.80;;;;;;;21.18;45.01;99694.56;5057616;28;20044;-77
2021/05/12 08:36:38;;;;;;;2.92;0.80;;;;;;;21.41;44.28;99696.69;5057248;28;20158;-77
2021/05/12 08:39:07;;;;;;;1.85;0.80;;;;;;;21.66;43.76;99692.31;5062457;28;20076;-75
2021/05/12 08:41:35;;;;;;;4.00;0.80;;;;;;;21.62;44.23;99681.19;5060114;28;20102;-84
2021/05/12 08:44:05;;;;;;;1.38;0.60;;;;;;;21.55;43.88;99679.34;5057853;28;20394;-86
2021/05/12 08:46:33;;;;;;;1.05;0.50;;;;;;;21.71;42.89;99674.09;5060808;28;20036;-77
2021/05/12 08:49:01;;;;;;;0.60;0.60;;;;;;;21.89;41.95;99673.97;5062379;28;20090;-80
2021/05/12 08:51:28;;;;;;;1.27;0.80;;;;;;;21.81;41.56;99680.09;5058501;28;20563;-84
2021/05/12 08:53:56;;;;;;;2.40;0.57;;;;;;;22.09;42.50;99682.44;5061182;28;20083;-77
2021/05/12 08:56:23;;;;;;;0.85;0.50;;;;;;;22.34;42.16;99681.50;5059692;28;20106;-73
2021/05/12 08:58:58;;;;;;;0.63;0.63;;;;;;;22.40;41.42;99674.69;5054738;28;20055;-75
2021/05/12 09:01:25;;;;;;;1.40;0.60;;;;;;;22.29;41.13;99677.69;5061439;28;20048;-80
2021/05/12 09:03:53;;;;;;;0.60;0.60;;;;;;;22.32;40.82;99678.19;5055270;28;20044;-84
2021/05/12 09:06:20;;;;;;;0.73;0.60;;;;;;;21.91;40.61;99679.94;5057598;28;20044;-78
2021/05/12 09:08:49;;;;;;;3.28;0.82;;;;;;;21.93;41.03;99672.63;5059692;28;20376;-75
2021/05/12 09:11:16;;;;;;;1.05;0.60;;;;;;;21.91;42.56;99680.78;5056441;28;20033;-77
2021/05/12 09:13:46;;;;;;;2.08;0.60;;;;;;;22.32;41.16;99677.34;5054205;28;20658;-83
2021/05/12 09:16:27;;;;;;;4.57;0.70;;;;;;;22.31;41.53;99673.03;5055280;28;20057;-74
2021/05/12 09:19:02;;;;;;;4.90;0.70;;;;;;;22.40;41.62;99675.53;5055157;28;20045;-78
2021/05/12 09:21:50;;;;;;;0.52;0.52;;;;;;;22.45;41.31;99680.34;5038924;28;20394;-84
2021/05/12 09:24:23;;;;;;;0.93;0.55;;;;;;;22.26;41.26;99684.16;5058861;28;20426;-77
2021/05/12 09:26:53;;;;;;;1.85;0.95;;;;;;;22.20;41.24;99684.81;5062475;28;20036;-80
2021/05/12 09:29:29;;;;;;;2.10;0.70;;;;;;;22.18;41.01;99684.97;5063754;28;20406;-81
2021/05/12 09:32:06;;;;;;;0.73;0.70;;;;;;;21.71;43.62;99684.69;5061647;28;20045;-74
2021/05/12 09:34:55;;;;;;;0.50;0.50;;;;;;;21.72;44.35;99689.00;5059772;28;20044;-71
2021/05/12 09:37:31;;;;;;;0.60;0.60;;;;;;;21.63;44.01;99685.53;5058230;28;20053;-73
2021/05/12 09:40:05;;;;;;;3.35;1.05;;;;;;;21.42;44.99;99691.25;5060823;28;20520;-70
2021/05/12 09:42:32;;;;;;;;;;;;;;;21.34;45.23;99693.84;5059559;28;20048;-70
2021/05/12 09:45:16;;;;;;;0.90;0.90;;;;;;;21.16;46.51;99695.75;5058291;28;20007;-87
2021/05/12 09:47:48;;;;;;;1.17;0.80;;;;;;;21.17;45.66;99697.41;5059171;28;20083;-77
2021/05/12 09:50:20;;;;;;;1.15;0.80;;;;;;;21.32;45.34;99697.66;5058636;28;20065;-77
2021/05/12 09:52:51;;;;;;;1.02;0.80;;;;;;;21.41;44.79;99707.28;5060600;28;20099;-76
2021/05/12 09:55:19;;;;;;;0.90;0.90;;;;;;;21.44;45.69;99699.88;5057460;28;20070;-73
2021/05/12 09:57:58;;;;;;;4.10;1.33;;;;;;;21.32;45.39;99698.50;5059856;28;20065;-77
2021/05/12 10:00:33;;;;;;;5.55;1.08;;;;;;;21.22;44.92;99700.41;5059152;28;20123;-75
2021/05/12 10:03:01;;;;;;;2.33;1.20;;;;;;;21.16;45.29;99693.09;5062080;28;20040;-82
2021/05/12 10:05:52;;;;;;;2.30;1.10;;;;;;;21.11;45.56;99685.59;5056912;28;20044;-79
2021/05/12 10:08:23;;;;;;;0.90;0.90;;;;;;;21.27;46.68;99684.84;5057610;28;20514;-83
2021/05/12 10:10:55;;;;;;;1.70;1.40;;;;;;;20.98;46.73;99681.72;5060697;28;20444;-81
2021/05/12 10:13:24;;;;;;;3.50;1.25;;;;;;;21.24;47.17;99677.22;5059417;28;20051;-87
2021/05/12 10:15:51;;;;;;;2.25;1.70;;;;;;;21.28;46.55;99680.38;5060870;28;20564;-84
2021/05/12 10:18:18;;;;;;;2.60;1.60;;;;;;;21.08;45.89;99671.84;5058072;28;20127;-82
2021/05/12 10:20:45;;;;;;;2.63;1.52;;;;;;;21.33;46.95;99670.16;5058744;28;20558;-72
2021/05/12 10:23:12;;;;;;;4.43;1.75;;;;;;;21.27;47.02;99676.91;5058146;28;20455;-73
2021/05/12 10:25:39;;;;;;;2.08;1.98;;;;;;;21.13;46.82;99677.50;5055457;28;20051;-73
2021/05/12 10:28:08;;;;;;;4.05;1.70;;;;;;;21.17;47.85;99673.53;5042501;28;20117;-71
2021/05/12 10:30:35;;;;;;;5.07;2.08;;;;;;;21.37;46.51;99672.34;5059852;28;20445;-72
2021/05/12 10:33:06;;;;;;;2.20;1.60;;;;;;;21.41;46.50;99670.19;5060384;28;20131;-77
2021/05/12 10:35:35;;;;;;;2.00;1.80;;;;;;;21.36;47.30;99670.69;5057057;28;20102;-72
2021/05/12 10:38:03;;;;;;;7.10;1.85;;;;;;;21.18;48.24;99668.06;5056801;28;20044;-77
2021/05/12 10:40:34;;;;;;;7.20;2.15;;;;;;;21.26;47.61;99669.94;5058091;28;20514;-81
2021/05/12 10:46:02;;;;;;;2.28;2.10;;;;;;;20.79;48.19;99662.41;5056849;28;20040;-72
2021/05/12 10:48:42;;;;;;;2.88;2.58;;;;;;;20.85;48.44;99661.78;5053944;28;21430;-71
2021/05/12 10:51:22;;;;;;;3.25;2.30;;;;;;;21.12;48.67;99660.75;5055549;28;20064;-74
2021/05/12 10:53:52;;;;;;;1.80;1.70;;;;;;;21.14;49.17;99664.06;5057664;28;20108;-73
2021/05/12 10:56:42;;;;;;;5.70;1.83;;;;;;;21.02;50.18;99667.16;5063143;28;20913;-75
2021/05/12 10:59:10;;;;;;;2.90;2.60;;;;;;;20.82;50.62;99661.25;5056614;28;20499;-75
2021/05/12 11:01:40;;;;;;;2.53;2.33;;;;;;;21.07;48.18;99657.75;5057695;28;20041;-75
2021/05/12 11:04:12;;;;;;;10.30;2.30;;;;;;;21.20;47.03;99659.97;5063999;28;20048;-75
2021/05/12 11:06:39;;;;;;;3.10;2.28;;;;;;;21.18;47.22;99651.34;5064421;28;20036;-74
2021/05/12 11:09:11;;;;;;;3.88;2.80;;;;;;;21.14;48.25;99650.81;5057268;28;20064;-76
2021/05/12 11:11:38;;;;;;;5.05;2.80;;;;;;;21.03;48.71;99650.28;5062104;28;20052;-75
2021/05/12 11:14:25;;;;;;;3.10;2.80;;;;;;;21.11;48.55;99642.38;5057374;28;20048;-72
2021/05/12 11:17:00;;;;;;;5.07;3.75;;;;;;;20.94;48.87;99638.81;5058031;28;20407;-73
2021/05/12 11:19:52;;;;;;;5.50;2.60;;;;;;;20.92;50.31;99631.00;5057055;28;20044;-72
2021/05/12 11:33:38;;;;;;;3.20;2.30;;;;;;;20.81;49.36;99627.81;5060531;28;20041;-72
2021/05/12 11:36:14;;;;;;;6.05;3.13;;;;;;;20.78;48.65;99617.56;5058475;28;20033;-69
2021/05/12 11:38:42;;;;;;;4.22;2.97;;;;;;;20.67;49.94;99624.78;5054212;28;20064;-70
2021/05/12 11:41:17;;;;;;;5.78;2.95;;;;;;;20.77;50.61;99624.63;5056877;28;20041;-71
2021/05/12 11:43:56;;;;;;;5.10;3.17;;;;;;;20.76;51.19;99622.97;5059464;28;20057;-72
2021/05/12 11:46:27;;;;;;;4.88;2.65;;;;;;;20.69;50.47;99629.91;5059641;28;20036;-70
2021/05/12 11:48:56;;;;;;;6.65;3.15;;;;;;;20.78;50.62;99622.84;5056982;28;20043;-71
2021/05/12 11:51:28;;;;;;;4.60;3.20;;;;;;;20.78;50.01;99622.84;5057714;28;20124;-71
2021/05/12 11:53:55;;;;;;;4.15;2.17;;;;;;;20.62;48.51;99615.63;5055560;28;20439;-71
2021/05/12 11:56:22;;;;;;;4.38;2.58;;;;;;;20.60;48.13;99599.88;5055943;28;20040;-71
2021/05/12 11:58:59;;;;;;;4.05;3.22;;;;;;;20.56;50.90;99608.28;5055535;28;20059;-71
2021/05/12 12:01:29;;;;;;;9.13;3.70;;;;;;;20.54;49.47;99599.69;5057198;28;20097;-71